createdAt,value
2018-07-31T00:00:14.740Z,96954
2018-07-31T00:01:30.605Z,96953
2018-07-31T00:02:46.520Z,96955
2018-07-31T00:04:02.449Z,96954
2018-07-31T00:05:18.318Z,96951
2018-07-31T00:06:34.228Z,96951
2018-07-31T00:07:50.125Z,96949
2018-07-31T00:09:06.006Z,96950
2018-07-31T00:10:21.869Z,96957
2018-07-31T00:11:37.721Z,96952
2018-07-31T00:12:53.592Z,96948
2018-07-31T00:14:09.472Z,96952
2018-07-31T00:15:25.349Z,96949
2018-07-31T00:16:41.214Z,96947
2018-07-31T00:17:57.090Z,96950
2018-07-31T00:19:13.015Z,96951
2018-07-31T00:20:28.913Z,96948
2018-07-31T00:21:44.850Z,96948
2018-07-31T00:23:00.761Z,96948
2018-07-31T00:24:16.627Z,96947
2018-07-31T00:25:32.513Z,96947
2018-07-31T00:26:48.365Z,96947
2018-07-31T00:28:04.245Z,96941
2018-07-31T00:29:20.144Z,96948
2018-07-31T00:30:36.254Z,96946
2018-07-31T00:31:52.127Z,96948
2018-07-31T00:33:07.997Z,96943
2018-07-31T00:34:23.932Z,96945
2018-07-31T00:35:39.808Z,96944
2018-07-31T00:36:55.678Z,96950
2018-07-31T00:38:11.533Z,96946
2018-07-31T00:39:27.423Z,96951
2018-07-31T00:40:43.290Z,96952
2018-07-31T00:41:59.174Z,96953
2018-07-31T00:43:15.056Z,96947
2018-07-31T00:44:30.932Z,96951
2018-07-31T00:45:46.841Z,96952
2018-07-31T00:48:43.643Z,96946
2018-07-31T00:49:59.529Z,96949
2018-07-31T00:51:15.483Z,96953
2018-07-31T00:54:13.184Z,96947
2018-07-31T00:55:29.061Z,96953
2018-07-31T00:56:44.945Z,96947
2018-07-31T00:58:00.831Z,96952
2018-07-31T00:59:16.713Z,96954
2018-07-31T01:00:32.576Z,96953
2018-07-31T01:01:48.459Z,96953
2018-07-31T01:03:04.371Z,96952
2018-07-31T01:04:20.401Z,96952
2018-07-31T01:05:36.283Z,96949
2018-07-31T01:06:52.157Z,96951
2018-07-31T01:08:08.073Z,96953
2018-07-31T01:09:23.931Z,96954
2018-07-31T01:10:39.866Z,96956
2018-07-31T01:11:55.712Z,96958
2018-07-31T01:13:11.618Z,96957
2018-07-31T01:14:27.465Z,96958
2018-07-31T01:15:43.345Z,96956
2018-07-31T01:16:59.217Z,96959
2018-07-31T01:18:15.116Z,96959
2018-07-31T01:19:31.041Z,96951
2018-07-31T01:20:46.908Z,96947
2018-07-31T01:22:02.788Z,96950
2018-07-31T01:23:18.711Z,96950
2018-07-31T01:24:34.628Z,96947
2018-07-31T01:25:50.493Z,96948
2018-07-31T01:27:06.332Z,96942
2018-07-31T01:28:22.174Z,96944
2018-07-31T01:29:38.079Z,96946
2018-07-31T01:30:53.913Z,96944
2018-07-31T01:32:09.772Z,96948
2018-07-31T01:33:25.798Z,96946
2018-07-31T01:34:41.702Z,96944
2018-07-31T01:35:57.531Z,96950
2018-07-31T01:37:13.397Z,96947
2018-07-31T01:38:29.252Z,96947
2018-07-31T01:39:45.127Z,96945
2018-07-31T01:41:00.990Z,96950
2018-07-31T01:42:16.849Z,96948
2018-07-31T01:43:32.754Z,96941
2018-07-31T01:44:48.636Z,96944
2018-07-31T01:46:04.536Z,96938
2018-07-31T01:47:20.440Z,96938
2018-07-31T01:48:36.317Z,96938
2018-07-31T01:49:52.217Z,96938
2018-07-31T01:51:08.112Z,96939
2018-07-31T01:52:23.973Z,96936
2018-07-31T01:53:39.841Z,96933
2018-07-31T01:54:55.778Z,96936
2018-07-31T01:56:11.651Z,96937
2018-07-31T01:57:27.526Z,96939
2018-07-31T01:58:43.433Z,96939
2018-07-31T01:59:59.312Z,96937
2018-07-31T02:01:15.182Z,96935
2018-07-31T02:02:31.062Z,96934
2018-07-31T02:03:46.940Z,96933
2018-07-31T02:06:43.744Z,96930
2018-07-31T02:07:59.685Z,96928
2018-07-31T02:09:15.567Z,96932
2018-07-31T02:10:31.469Z,96932
2018-07-31T02:11:47.382Z,96927
2018-07-31T02:13:03.247Z,96925
2018-07-31T02:14:19.129Z,96925
2018-07-31T02:15:34.990Z,96929
2018-07-31T02:16:50.918Z,96932
2018-07-31T02:18:06.841Z,96928
2018-07-31T02:19:22.757Z,96926
2018-07-31T02:20:38.659Z,96928
2018-07-31T02:21:54.546Z,96929
2018-07-31T02:23:10.446Z,96928
2018-07-31T02:24:26.322Z,96931
2018-07-31T02:25:42.252Z,96927
2018-07-31T02:26:58.181Z,96926
2018-07-31T02:28:14.165Z,96926
2018-07-31T02:29:29.989Z,96929
2018-07-31T02:30:45.985Z,96930
2018-07-31T02:32:01.846Z,96929
2018-07-31T02:33:17.736Z,96928
2018-07-31T02:34:33.633Z,96931
2018-07-31T02:35:49.578Z,96934
2018-07-31T02:37:05.534Z,96931
2018-07-31T02:38:21.432Z,96930
2018-07-31T02:39:37.294Z,96926
2018-07-31T02:40:53.171Z,96930
2018-07-31T02:42:09.045Z,96925
2018-07-31T02:43:25.911Z,96925
2018-07-31T02:44:41.828Z,96926
2018-07-31T02:45:57.754Z,96925
2018-07-31T02:47:13.612Z,96926
2018-07-31T02:48:29.551Z,96925
2018-07-31T02:49:45.451Z,96923
2018-07-31T02:51:01.343Z,96922
2018-07-31T02:52:17.214Z,96917
2018-07-31T02:53:33.092Z,96920
2018-07-31T02:54:48.987Z,96921
2018-07-31T02:56:04.905Z,96925
2018-07-31T02:57:20.885Z,96921
2018-07-31T02:58:36.801Z,96924
2018-07-31T02:59:52.720Z,96920
2018-07-31T03:01:08.747Z,96924
2018-07-31T03:02:24.689Z,96925
2018-07-31T03:03:40.695Z,96923
2018-07-31T03:04:56.582Z,96929
2018-07-31T03:06:12.458Z,96927
2018-07-31T03:07:28.321Z,96930
2018-07-31T03:08:44.310Z,96931
2018-07-31T03:10:00.196Z,96932
2018-07-31T03:11:16.102Z,96935
2018-07-31T03:12:31.985Z,96938
2018-07-31T03:13:47.903Z,96938
2018-07-31T03:15:03.945Z,96939
2018-07-31T03:16:20.006Z,96939
2018-07-31T03:17:35.899Z,96937
2018-07-31T03:18:51.788Z,96938
2018-07-31T03:20:07.745Z,96940
2018-07-31T03:21:23.756Z,96941
2018-07-31T03:22:39.756Z,96943
2018-07-31T03:23:55.633Z,96941
2018-07-31T03:25:11.628Z,96942
2018-07-31T03:26:27.585Z,96942
2018-07-31T03:27:43.497Z,96942
2018-07-31T03:28:59.569Z,96938
2018-07-31T03:30:15.484Z,96939
2018-07-31T03:31:31.370Z,96937
2018-07-31T03:32:47.279Z,96938
2018-07-31T03:34:03.154Z,96942
2018-07-31T03:35:19.199Z,96935
2018-07-31T03:36:35.125Z,96940
2018-07-31T03:37:51.089Z,96940
2018-07-31T03:39:07.993Z,96941
2018-07-31T03:40:24.890Z,96942
2018-07-31T03:41:40.811Z,96941
2018-07-31T03:42:56.834Z,96939
2018-07-31T03:44:12.721Z,96939
2018-07-31T03:45:28.619Z,96940
2018-07-31T03:46:44.662Z,96943
2018-07-31T03:48:00.677Z,96937
2018-07-31T03:49:16.543Z,96940
2018-07-31T03:50:32.468Z,96940
2018-07-31T03:51:48.400Z,96943
2018-07-31T03:53:04.292Z,96942
2018-07-31T03:54:20.209Z,96940
2018-07-31T03:55:36.229Z,96939
2018-07-31T03:56:52.140Z,96944
2018-07-31T03:58:09.061Z,96947
2018-07-31T03:59:24.987Z,96944
2018-07-31T04:00:40.988Z,96948
2018-07-31T04:01:56.993Z,96947
2018-07-31T04:03:12.899Z,96947
2018-07-31T04:04:28.898Z,96945
2018-07-31T04:05:44.771Z,96946
2018-07-31T04:07:00.705Z,96950
2018-07-31T04:08:16.730Z,96946
2018-07-31T04:09:32.764Z,96948
2018-07-31T04:10:48.680Z,96945
2018-07-31T04:12:04.563Z,96943
2018-07-31T04:13:20.466Z,96944
2018-07-31T04:14:36.397Z,96947
2018-07-31T04:15:52.314Z,96948
2018-07-31T04:17:08.358Z,96943
2018-07-31T04:18:24.215Z,96952
2018-07-31T04:19:40.153Z,96951
2018-07-31T04:20:56.066Z,96950
2018-07-31T04:22:11.946Z,96952
2018-07-31T04:23:27.852Z,96951
2018-07-31T04:24:43.829Z,96956
2018-07-31T04:25:59.948Z,96957
2018-07-31T04:27:15.958Z,96961
2018-07-31T04:28:31.862Z,96960
2018-07-31T04:29:47.748Z,96964
2018-07-31T04:31:03.783Z,96964
2018-07-31T04:32:19.753Z,96968
2018-07-31T04:33:35.675Z,96965
2018-07-31T04:34:51.609Z,96968
2018-07-31T04:36:07.603Z,96967
2018-07-31T04:37:23.460Z,96963
2018-07-31T04:38:39.502Z,96966
2018-07-31T04:39:55.431Z,96961
2018-07-31T04:41:11.331Z,96963
2018-07-31T04:42:27.413Z,96962
2018-07-31T04:43:43.263Z,96966
2018-07-31T04:44:59.180Z,96967
2018-07-31T04:46:15.425Z,96967
2018-07-31T04:47:31.312Z,96970
2018-07-31T04:48:47.258Z,96966
2018-07-31T04:50:03.162Z,96966
2018-07-31T04:51:19.085Z,96965
2018-07-31T04:52:35.084Z,96964
2018-07-31T04:53:52.134Z,96964
2018-07-31T04:55:08.118Z,96964
2018-07-31T04:56:24.082Z,96964
2018-07-31T04:57:40.092Z,96965
2018-07-31T04:58:56.169Z,96964
2018-07-31T05:00:12.101Z,96964
2018-07-31T05:01:28.125Z,96967
2018-07-31T05:02:44.070Z,96970
2018-07-31T05:04:00.121Z,96969
2018-07-31T05:05:16.232Z,96970
2018-07-31T05:06:32.258Z,96971
2018-07-31T05:07:48.280Z,96976
2018-07-31T05:09:04.192Z,96974
2018-07-31T05:10:20.241Z,96977
2018-07-31T05:11:36.246Z,96974
2018-07-31T05:12:52.183Z,96977
2018-07-31T05:14:08.184Z,96977
2018-07-31T05:15:24.134Z,96975
2018-07-31T05:16:40.099Z,96978
2018-07-31T05:17:56.007Z,96977
2018-07-31T05:19:11.986Z,96985
2018-07-31T05:20:27.970Z,96984
2018-07-31T05:21:44.005Z,96993
2018-07-31T05:22:59.920Z,96992
2018-07-31T05:24:15.921Z,96990
2018-07-31T05:25:31.880Z,96990
2018-07-31T05:26:47.857Z,96992
2018-07-31T05:29:45.282Z,96995
2018-07-31T05:31:01.390Z,96997
2018-07-31T05:32:17.303Z,96996
2018-07-31T05:33:33.202Z,96999
2018-07-31T05:34:49.153Z,96998
2018-07-31T05:36:05.269Z,96998
2018-07-31T05:37:21.140Z,97000
2018-07-31T05:38:37.023Z,97005
2018-07-31T05:39:53.020Z,96999
2018-07-31T05:41:08.911Z,96999
2018-07-31T05:42:24.821Z,96999
2018-07-31T05:43:40.814Z,96995
2018-07-31T05:44:56.740Z,96999
2018-07-31T05:46:12.675Z,97000
2018-07-31T05:47:28.675Z,96999
2018-07-31T05:48:44.631Z,96998
2018-07-31T05:50:00.557Z,96997
2018-07-31T05:51:16.466Z,96999
2018-07-31T05:52:32.401Z,97000
2018-07-31T05:53:48.301Z,97001
2018-07-31T05:55:04.181Z,96999
2018-07-31T05:56:20.190Z,97001
2018-07-31T05:57:36.137Z,97005
2018-07-31T05:58:52.176Z,97001
2018-07-31T06:00:08.100Z,97005
2018-07-31T06:01:24.091Z,97008
2018-07-31T06:02:40.029Z,97007
2018-07-31T06:03:55.924Z,97009
2018-07-31T06:05:11.855Z,97009
2018-07-31T06:06:27.729Z,97013
2018-07-31T06:07:43.626Z,97013
2018-07-31T06:08:59.558Z,97011
2018-07-31T06:10:15.550Z,97010
2018-07-31T06:11:31.477Z,97016
2018-07-31T06:12:47.542Z,97015
2018-07-31T06:14:03.547Z,97016
2018-07-31T06:15:19.448Z,97016
2018-07-31T06:16:35.347Z,97019
2018-07-31T06:17:51.262Z,97017
2018-07-31T06:19:07.213Z,97021
2018-07-31T06:20:23.180Z,97021
2018-07-31T06:21:39.241Z,97020
2018-07-31T06:22:55.177Z,97022
2018-07-31T06:24:11.160Z,97020
2018-07-31T06:25:27.081Z,97019
2018-07-31T06:26:43.095Z,97020
2018-07-31T06:27:59.122Z,97016
2018-07-31T06:29:15.069Z,97018
2018-07-31T06:30:30.959Z,97023
2018-07-31T06:31:46.937Z,97022
2018-07-31T06:33:02.980Z,97020
2018-07-31T06:34:18.915Z,97021
2018-07-31T06:35:34.833Z,97022
2018-07-31T06:36:50.738Z,97023
2018-07-31T06:38:06.666Z,97022
2018-07-31T06:39:22.580Z,97030
2018-07-31T06:40:38.547Z,97028
2018-07-31T06:41:54.504Z,97033
2018-07-31T06:43:10.411Z,97030
2018-07-31T06:44:26.407Z,97035
2018-07-31T06:45:42.360Z,97034
2018-07-31T06:46:58.255Z,97037
2018-07-31T06:48:14.234Z,97038
2018-07-31T06:49:30.257Z,97039
2018-07-31T06:50:46.160Z,97041
2018-07-31T06:52:02.139Z,97044
2018-07-31T06:53:18.197Z,97039
2018-07-31T06:54:34.155Z,97039
2018-07-31T06:55:50.085Z,97039
2018-07-31T06:57:06.036Z,97039
2018-07-31T06:58:22.038Z,97038
2018-07-31T06:59:37.938Z,97044
2018-07-31T07:00:53.889Z,97042
2018-07-31T07:02:10.098Z,97039
2018-07-31T07:03:26.029Z,97044
2018-07-31T07:04:42.007Z,97044
2018-07-31T07:05:57.928Z,97041
2018-07-31T07:07:14.020Z,97046
2018-07-31T07:08:29.979Z,97041
2018-07-31T07:09:45.904Z,97048
2018-07-31T07:12:42.373Z,97048
2018-07-31T07:13:58.385Z,97048
2018-07-31T07:15:14.284Z,97049
2018-07-31T07:16:30.243Z,97051
2018-07-31T07:17:46.342Z,97053
2018-07-31T07:19:02.408Z,97054
2018-07-31T07:20:18.359Z,97054
2018-07-31T07:21:34.293Z,97056
2018-07-31T07:22:50.288Z,97052
2018-07-31T07:24:06.180Z,97057
2018-07-31T07:25:22.070Z,97060
2018-07-31T07:26:38.127Z,97058
2018-07-31T07:27:54.134Z,97056
2018-07-31T07:29:10.097Z,97061
2018-07-31T07:30:26.016Z,97062
2018-07-31T07:31:41.996Z,97064
2018-07-31T07:32:58.093Z,97060
2018-07-31T07:34:14.043Z,97058
2018-07-31T07:35:29.984Z,97062
2018-07-31T07:36:45.987Z,97063
2018-07-31T07:38:01.895Z,97066
2018-07-31T07:39:17.803Z,97063
2018-07-31T07:40:33.746Z,97065
2018-07-31T07:41:49.842Z,97063
2018-07-31T07:43:05.817Z,97062
2018-07-31T07:44:21.752Z,97060
2018-07-31T07:45:37.903Z,97059
2018-07-31T07:46:53.797Z,97058
2018-07-31T07:48:12.562Z,97056
2018-07-31T07:49:28.567Z,97058
2018-07-31T07:50:44.517Z,97058
2018-07-31T07:52:00.418Z,97057
2018-07-31T07:53:16.339Z,97059
2018-07-31T07:54:32.324Z,97056
2018-07-31T07:55:48.319Z,97059
2018-07-31T07:57:04.359Z,97057
2018-07-31T07:58:20.294Z,97059
2018-07-31T07:59:36.249Z,97058
2018-07-31T08:00:52.189Z,97055
2018-07-31T08:02:08.117Z,97058
2018-07-31T08:03:24.054Z,97062
2018-07-31T08:04:40.117Z,97061
2018-07-31T08:05:56.124Z,97060
2018-07-31T08:07:12.041Z,97061
2018-07-31T08:08:28.038Z,97065
2018-07-31T08:09:44.000Z,97069
2018-07-31T08:10:59.946Z,97070
2018-07-31T08:12:15.911Z,97069
2018-07-31T08:13:31.934Z,97069
2018-07-31T08:14:47.900Z,97069
2018-07-31T08:16:04.486Z,97071
2018-07-31T08:17:20.468Z,97068
2018-07-31T08:18:36.750Z,97069
2018-07-31T08:19:52.956Z,97072
2018-07-31T08:22:50.006Z,97070
2018-07-31T08:25:46.835Z,97072
2018-07-31T08:28:43.809Z,97069
2018-07-31T08:29:59.934Z,97074
2018-07-31T08:31:15.827Z,97072
2018-07-31T08:32:31.767Z,97071
2018-07-31T08:33:47.742Z,97069
2018-07-31T08:35:04.120Z,97072
2018-07-31T08:36:20.520Z,97074
2018-07-31T08:37:36.793Z,97076
2018-07-31T08:38:53.157Z,97079
2018-07-31T08:40:09.363Z,97082
2018-07-31T08:41:25.406Z,97080
2018-07-31T08:42:41.259Z,97078
2018-07-31T08:43:57.194Z,97081
2018-07-31T08:45:13.513Z,97077
2018-07-31T08:46:29.905Z,97081
2018-07-31T08:49:27.081Z,97078
2018-07-31T08:50:43.287Z,97077
2018-07-31T08:51:59.302Z,97081
2018-07-31T08:53:15.263Z,97078
2018-07-31T08:54:31.338Z,97077
2018-07-31T08:55:47.395Z,97079
2018-07-31T08:57:03.482Z,97076
2018-07-31T08:58:19.485Z,97074
2018-07-31T08:59:35.398Z,97070
2018-07-31T09:00:51.407Z,97068
2018-07-31T09:02:07.361Z,97068
2018-07-31T09:03:23.276Z,97072
2018-07-31T09:04:39.264Z,97071
2018-07-31T09:05:55.230Z,97067
2018-07-31T09:07:11.155Z,97071
2018-07-31T09:10:08.132Z,97069
2018-07-31T09:11:24.534Z,97069
2018-07-31T09:12:40.594Z,97065
2018-07-31T09:13:57.208Z,97064
2018-07-31T09:15:13.498Z,97067
2018-07-31T09:16:29.766Z,97062
2018-07-31T09:17:46.273Z,97062
2018-07-31T09:19:02.259Z,97058
2018-07-31T09:20:18.405Z,97056
2018-07-31T09:21:34.645Z,97059
2018-07-31T09:24:31.447Z,97060
2018-07-31T09:25:47.372Z,97056
2018-07-31T09:27:03.883Z,97057
2018-07-31T09:28:20.619Z,97057
2018-07-31T09:29:36.839Z,97056
2018-07-31T09:30:53.559Z,97054
2018-07-31T09:32:09.371Z,97056
2018-07-31T09:33:25.525Z,97056
2018-07-31T09:34:41.458Z,97058
2018-07-31T09:35:57.476Z,97059
2018-07-31T09:37:13.481Z,97059
2018-07-31T09:38:29.477Z,97057
2018-07-31T09:39:45.491Z,97059
2018-07-31T09:41:01.497Z,97059
2018-07-31T09:42:17.571Z,97060
2018-07-31T09:43:33.508Z,97060
2018-07-31T09:44:49.432Z,97059
2018-07-31T09:46:06.016Z,97060
2018-07-31T09:47:22.156Z,97064
2018-07-31T09:48:38.142Z,97063
2018-07-31T09:49:54.111Z,97065
2018-07-31T09:51:10.237Z,97064
2018-07-31T09:54:07.089Z,97061
2018-07-31T09:55:23.093Z,97063
2018-07-31T09:56:39.045Z,97060
2018-07-31T09:57:55.141Z,97061
2018-07-31T09:59:11.213Z,97063
2018-07-31T10:00:27.123Z,97064
2018-07-31T10:01:43.042Z,97061
2018-07-31T10:02:59.084Z,97064
2018-07-31T10:04:15.183Z,97068
2018-07-31T10:05:31.213Z,97067
2018-07-31T10:06:47.203Z,97068
2018-07-31T10:08:03.112Z,97068
2018-07-31T10:09:19.219Z,97061
2018-07-31T10:10:35.177Z,97067
2018-07-31T10:11:51.132Z,97062
2018-07-31T10:13:07.106Z,97064
2018-07-31T10:14:23.048Z,97067
2018-07-31T10:15:39.047Z,97065
2018-07-31T10:16:55.176Z,97056
2018-07-31T10:18:11.698Z,97066
2018-07-31T10:22:25.108Z,97055
2018-07-31T10:23:41.162Z,97058
2018-07-31T10:24:57.131Z,97057
2018-07-31T10:26:13.140Z,97056
2018-07-31T10:27:29.130Z,97050
2018-07-31T10:28:45.182Z,97052
2018-07-31T10:30:01.136Z,97053
2018-07-31T10:31:17.073Z,97053
2018-07-31T10:32:33.041Z,97050
2018-07-31T10:33:49.059Z,97044
2018-07-31T10:35:05.136Z,97042
2018-07-31T10:36:21.109Z,97048
2018-07-31T10:37:37.112Z,97049
2018-07-31T10:38:53.014Z,97054
2018-07-31T10:40:09.050Z,97044
2018-07-31T10:41:25.019Z,97045
2018-07-31T10:42:41.051Z,97042
2018-07-31T10:43:57.102Z,97044
2018-07-31T10:45:13.061Z,97046
2018-07-31T10:46:29.103Z,97042
2018-07-31T10:47:45.033Z,97042
2018-07-31T10:49:01.050Z,97043
2018-07-31T10:50:17.016Z,97042
2018-07-31T10:51:33.029Z,97041
2018-07-31T10:52:48.911Z,97040
2018-07-31T10:54:04.943Z,97041
2018-07-31T10:55:20.904Z,97041
2018-07-31T10:56:36.840Z,97041
2018-07-31T10:57:52.918Z,97037
2018-07-31T10:59:09.033Z,97038
2018-07-31T11:00:25.179Z,97038
2018-07-31T11:01:40.993Z,97040
2018-07-31T11:02:57.995Z,97038
2018-07-31T11:04:14.106Z,97037
2018-07-31T11:05:30.357Z,97038
2018-07-31T11:06:46.320Z,97034
2018-07-31T11:08:02.264Z,97034
2018-07-31T11:09:18.235Z,97034
2018-07-31T11:10:34.234Z,97033
2018-07-31T11:11:50.209Z,97030
2018-07-31T11:13:06.188Z,97027
2018-07-31T11:14:22.129Z,97033
2018-07-31T11:15:38.211Z,97031
2018-07-31T11:16:54.165Z,97031
2018-07-31T11:18:10.090Z,97030
2018-07-31T11:19:26.035Z,97029
2018-07-31T11:20:42.134Z,97034
2018-07-31T11:21:58.326Z,97030
2018-07-31T11:24:53.992Z,97030
2018-07-31T11:26:09.950Z,97028
2018-07-31T11:27:25.926Z,97027
2018-07-31T11:28:41.871Z,97026
2018-07-31T11:29:57.862Z,97022
2018-07-31T11:31:13.799Z,97022
2018-07-31T11:32:29.839Z,97023
2018-07-31T11:33:45.909Z,97020
2018-07-31T11:35:02.006Z,97019
2018-07-31T11:36:17.956Z,97020
2018-07-31T11:37:33.917Z,97023
2018-07-31T11:38:49.992Z,97020
2018-07-31T11:40:06.005Z,97020
2018-07-31T11:41:21.941Z,97020
2018-07-31T11:42:37.876Z,97021
2018-07-31T11:43:54.027Z,97017
2018-07-31T11:45:10.039Z,97013
2018-07-31T11:46:25.971Z,97014
2018-07-31T11:47:41.895Z,97012
2018-07-31T11:48:57.901Z,97009
2018-07-31T11:50:13.975Z,97012
2018-07-31T11:51:29.866Z,97013
2018-07-31T11:52:45.831Z,97013
2018-07-31T11:54:01.797Z,97011
2018-07-31T11:55:17.861Z,97011
2018-07-31T11:56:33.805Z,97012
2018-07-31T11:57:49.798Z,97013
2018-07-31T11:59:05.793Z,97016
2018-07-31T12:00:21.829Z,97016
2018-07-31T12:01:37.875Z,97017
2018-07-31T12:02:53.846Z,97012
2018-07-31T12:04:09.814Z,97015
2018-07-31T12:05:25.721Z,97014
2018-07-31T12:06:41.629Z,97006
2018-07-31T12:07:57.685Z,97009
2018-07-31T12:09:13.652Z,97006
2018-07-31T12:10:29.657Z,97009
2018-07-31T12:11:45.566Z,97006
2018-07-31T12:13:01.565Z,97009
2018-07-31T12:14:17.493Z,97004
2018-07-31T12:15:33.449Z,97004
2018-07-31T12:16:49.452Z,97006
2018-07-31T12:18:05.439Z,97004
2018-07-31T12:19:21.873Z,97008
2018-07-31T12:20:38.585Z,97005
2018-07-31T12:21:55.300Z,97003
2018-07-31T12:26:33.209Z,97000
2018-07-31T12:29:30.302Z,96995
2018-07-31T12:30:46.737Z,96994
2018-07-31T12:32:03.062Z,96991
2018-07-31T12:33:19.595Z,96988
2018-07-31T12:34:36.205Z,96989
2018-07-31T12:35:52.384Z,96987
2018-07-31T12:38:48.911Z,96989
2018-07-31T12:40:04.980Z,96989
2018-07-31T12:41:20.927Z,96984
2018-07-31T12:42:36.887Z,96987
2018-07-31T12:43:52.796Z,96988
2018-07-31T12:45:08.893Z,96987
2018-07-31T12:46:24.985Z,96986
2018-07-31T12:47:41.040Z,96986
2018-07-31T12:48:57.009Z,96988
2018-07-31T12:50:13.147Z,96986
2018-07-31T12:51:29.137Z,96987
2018-07-31T12:52:45.126Z,96983
2018-07-31T12:54:01.151Z,96985
2018-07-31T12:55:17.119Z,96984
2018-07-31T12:56:33.060Z,96987
2018-07-31T12:57:49.152Z,96979
2018-07-31T12:59:05.111Z,96982
2018-07-31T13:00:21.075Z,96984
2018-07-31T13:01:37.081Z,96979
2018-07-31T13:02:53.198Z,96980
2018-07-31T13:04:09.265Z,96979
2018-07-31T13:05:25.224Z,96978
2018-07-31T13:08:21.852Z,96975
2018-07-31T13:09:37.881Z,96977
2018-07-31T13:10:53.803Z,96975
2018-07-31T13:12:09.769Z,96975
2018-07-31T13:13:25.763Z,96977
2018-07-31T13:14:41.808Z,96975
2018-07-31T13:15:57.936Z,96977
2018-07-31T13:17:13.879Z,96973
2018-07-31T13:18:29.802Z,96975
2018-07-31T13:19:45.718Z,96967
2018-07-31T13:21:01.653Z,96964
2018-07-31T13:22:17.631Z,96966
2018-07-31T13:23:34.048Z,96966
2018-07-31T13:28:11.774Z,96962
2018-07-31T13:29:27.911Z,96966
2018-07-31T13:30:43.849Z,96964
2018-07-31T13:31:59.880Z,96965
2018-07-31T13:33:15.823Z,96965
2018-07-31T13:34:31.826Z,96966
2018-07-31T13:35:47.722Z,96966
2018-07-31T13:37:03.754Z,96967
2018-07-31T13:38:19.639Z,96965
2018-07-31T13:39:35.601Z,96964
2018-07-31T13:40:51.640Z,96962
2018-07-31T13:42:07.741Z,96963
2018-07-31T13:43:23.671Z,96963
2018-07-31T13:44:39.674Z,96960
2018-07-31T13:45:55.633Z,96962
2018-07-31T13:47:11.680Z,96959
2018-07-31T13:48:27.821Z,96957
2018-07-31T13:49:43.906Z,96955
2018-07-31T13:50:59.850Z,96954
2018-07-31T13:52:15.852Z,96957
2018-07-31T13:53:31.924Z,96956
2018-07-31T13:54:47.872Z,96956
2018-07-31T13:56:03.796Z,96956
2018-07-31T13:57:19.743Z,96951
2018-07-31T13:58:35.851Z,96951
2018-07-31T13:59:51.905Z,96952
2018-07-31T14:01:07.800Z,96953
2018-07-31T14:02:23.738Z,96957
2018-07-31T14:03:39.676Z,96953
2018-07-31T14:04:55.653Z,96951
2018-07-31T14:06:11.578Z,96952
2018-07-31T14:07:27.735Z,96954
2018-07-31T14:08:43.740Z,96950
2018-07-31T14:09:59.716Z,96949
2018-07-31T14:11:15.699Z,96947
2018-07-31T14:12:31.672Z,96943
2018-07-31T14:13:47.660Z,96944
2018-07-31T14:15:03.476Z,96945
2018-07-31T14:16:19.467Z,96944
2018-07-31T14:17:35.562Z,96945
2018-07-31T14:18:51.532Z,96943
2018-07-31T14:20:07.507Z,96946
2018-07-31T14:21:23.580Z,96944
2018-07-31T14:22:39.539Z,96942
2018-07-31T14:23:55.513Z,96946
2018-07-31T14:25:11.415Z,96945
2018-07-31T14:26:27.427Z,96944
2018-07-31T14:27:43.405Z,96942
2018-07-31T14:28:59.481Z,96941
2018-07-31T14:30:15.410Z,96942
2018-07-31T14:31:32.436Z,96941
2018-07-31T14:32:48.442Z,96945
2018-07-31T14:34:04.428Z,96944
2018-07-31T14:35:20.435Z,96943
2018-07-31T14:36:36.425Z,96937
2018-07-31T14:37:52.377Z,96943
2018-07-31T14:39:08.441Z,96942
2018-07-31T14:40:24.474Z,96939
2018-07-31T14:41:40.464Z,96940
2018-07-31T14:42:56.661Z,96942
2018-07-31T14:44:12.520Z,96940
2018-07-31T14:45:28.496Z,96938
2018-07-31T14:46:44.461Z,96939
2018-07-31T14:48:00.408Z,96934
2018-07-31T14:49:16.471Z,96939
2018-07-31T14:50:32.600Z,96943
2018-07-31T14:51:48.693Z,96939
2018-07-31T14:53:04.667Z,96938
2018-07-31T14:54:20.766Z,96938
2018-07-31T14:55:36.890Z,96938
2018-07-31T14:56:54.006Z,96934
2018-07-31T14:58:10.170Z,96935
2018-07-31T14:59:26.151Z,96941
2018-07-31T15:00:42.289Z,96936
2018-07-31T15:01:58.275Z,96939
2018-07-31T15:03:14.282Z,96939
2018-07-31T15:04:30.930Z,96938
2018-07-31T15:05:46.916Z,96936
2018-07-31T15:07:02.927Z,96935
2018-07-31T15:08:18.871Z,96934
2018-07-31T15:09:34.813Z,96930
2018-07-31T15:10:50.912Z,96935
2018-07-31T15:12:06.714Z,96932
2018-07-31T15:13:22.711Z,96929
2018-07-31T15:14:38.760Z,96931
2018-07-31T15:17:35.519Z,96927
2018-07-31T15:18:51.867Z,96924
2018-07-31T15:20:08.486Z,96923
2018-07-31T15:21:24.691Z,96924
2018-07-31T15:22:41.018Z,96922
2018-07-31T15:23:56.249Z,96918
2018-07-31T15:26:53.269Z,96914
2018-07-31T15:28:09.364Z,96916
2018-07-31T15:29:26.095Z,96918
2018-07-31T15:30:42.644Z,96917
2018-07-31T15:31:59.111Z,96917
2018-07-31T15:33:15.215Z,96917
2018-07-31T15:34:31.270Z,96915
2018-07-31T15:35:47.299Z,96915
2018-07-31T15:37:03.342Z,96918
2018-07-31T15:38:19.356Z,96914
2018-07-31T15:39:35.354Z,96916
2018-07-31T15:40:51.455Z,96915
2018-07-31T15:42:07.318Z,96913
2018-07-31T15:43:23.257Z,96915
2018-07-31T15:44:39.207Z,96915
2018-07-31T15:45:55.186Z,96914
2018-07-31T15:47:11.371Z,96912
2018-07-31T15:48:27.573Z,96915
2018-07-31T15:49:44.057Z,96915
2018-07-31T15:51:00.319Z,96916
2018-07-31T15:53:57.346Z,96916
2018-07-31T15:55:13.295Z,96909
2018-07-31T15:56:29.306Z,96910
2018-07-31T15:57:45.256Z,96912
2018-07-31T16:01:58.074Z,96908
2018-07-31T16:03:14.312Z,96909
2018-07-31T16:04:30.472Z,96908
2018-07-31T16:05:46.600Z,96906
2018-07-31T16:07:02.671Z,96904
2018-07-31T16:08:18.684Z,96903
2018-07-31T16:09:34.601Z,96906
2018-07-31T16:12:31.385Z,96907
2018-07-31T16:13:47.370Z,96905
2018-07-31T16:15:04.528Z,96902
2018-07-31T16:19:17.035Z,96899
2018-07-31T16:20:33.160Z,96901
2018-07-31T16:21:49.302Z,96899
2018-07-31T16:23:05.640Z,96900
2018-07-31T16:24:21.516Z,96902
2018-07-31T16:25:37.572Z,96902
2018-07-31T16:26:53.600Z,96902
2018-07-31T16:28:12.568Z,96903
2018-07-31T16:29:28.640Z,96898
2018-07-31T16:30:44.731Z,96897
2018-07-31T16:32:00.843Z,96900
2018-07-31T16:33:16.929Z,96899
2018-07-31T16:34:32.941Z,96899
2018-07-31T16:35:48.952Z,96896
2018-07-31T16:37:05.038Z,96896
2018-07-31T16:38:21.126Z,96897
2018-07-31T16:39:37.168Z,96898
2018-07-31T16:40:53.042Z,96901
2018-07-31T16:41:32.780Z,96896
2018-07-31T16:42:48.812Z,96897
2018-07-31T16:44:04.889Z,96896
2018-07-31T16:45:20.905Z,96897
2018-07-31T16:46:36.841Z,96896
2018-07-31T16:47:52.975Z,96896
2018-07-31T16:49:08.975Z,96894
2018-07-31T16:50:24.943Z,96892
2018-07-31T16:51:40.908Z,96891
2018-07-31T16:52:57.846Z,96890
2018-07-31T16:54:13.827Z,96888
2018-07-31T16:55:29.808Z,96888
2018-07-31T16:56:45.781Z,96891
2018-07-31T16:58:01.737Z,96892
2018-07-31T16:59:17.917Z,96892
2018-07-31T17:00:33.941Z,96888
2018-07-31T17:01:50.054Z,96891
2018-07-31T17:03:06.011Z,96890
2018-07-31T17:04:21.995Z,96888
2018-07-31T17:05:38.044Z,96886
2018-07-31T17:06:54.043Z,96888